createdAt,value
2023-02-15T00:01:49.207Z,102856.09
2023-02-15T00:04:18.156Z,102856.09
2023-02-15T00:06:44.792Z,102855.28
2023-02-15T00:09:12.579Z,102855.97
2023-02-15T00:11:43.643Z,102850.81
2023-02-15T00:14:15.306Z,102863.06
2023-02-15T00:16:43.155Z,102863.22
2023-02-15T00:19:10.801Z,102863.22
2023-02-15T00:21:38.439Z,102860.56
2023-02-15T00:24:07.246Z,102857.19
2023-02-15T00:26:34.242Z,102860.69
2023-02-15T00:29:00.994Z,102863.47
2023-02-15T00:31:32.649Z,102851.19
2023-02-15T00:34:07.448Z,102856.50
2023-02-15T00:36:34.248Z,102850.34
2023-02-15T00:39:00.824Z,102841.69
2023-02-15T00:41:27.469Z,102843.38
2023-02-15T00:43:54.144Z,102841.69
2023-02-15T00:46:20.847Z,102837.22
2023-02-15T00:48:47.466Z,102841.69
2023-02-15T00:51:14.031Z,102834.69
2023-02-15T00:53:40.555Z,102833.88
2023-02-15T00:56:07.120Z,102832.16
2023-02-15T00:58:33.776Z,102820.75
2023-02-15T01:01:06.400Z,102822.53
2023-02-15T01:03:33.200Z,102827.84
2023-02-15T01:06:00.342Z,102828.81
2023-02-15T01:08:27.509Z,102827.84
2023-02-15T01:10:54.521Z,102816.53
2023-02-15T01:13:21.393Z,102816.53
2023-02-15T01:15:54.665Z,102817.38
2023-02-15T01:18:22.069Z,102812.94
2023-02-15T01:20:48.883Z,102808.47
2023-02-15T01:23:15.766Z,102815.44
2023-02-15T01:25:42.517Z,102805.56
2023-02-15T01:28:09.223Z,102803.88
2023-02-15T01:30:35.887Z,102796.78
2023-02-15T01:33:02.453Z,102798.47
2023-02-15T01:35:29.576Z,102796.69
2023-02-15T01:37:56.896Z,102794.03
2023-02-15T01:40:23.811Z,102782.59
2023-02-15T01:42:54.758Z,102781.72
2023-02-15T01:45:24.126Z,102782.69
2023-02-15T01:48:13.795Z,102784.38
2023-02-15T01:50:53.882Z,102783.56
2023-02-15T01:53:27.922Z,102773.91
2023-02-15T01:55:57.881Z,102774.75
2023-02-15T01:58:26.712Z,102776.44
2023-02-15T02:00:54.172Z,102770.31
2023-02-15T02:03:45.350Z,102772.09
2023-02-15T02:06:12.457Z,102770.31
2023-02-15T02:08:39.031Z,102766.13
2023-02-15T02:11:11.917Z,102773.91
2023-02-15T02:13:39.940Z,102774.75
2023-02-15T02:16:23.211Z,102766.13
2023-02-15T02:19:34.169Z,102764.41
2023-02-15T02:22:26.937Z,102760.94
2023-02-15T02:24:56.246Z,102753.97
2023-02-15T02:27:30.160Z,102762.84
2023-02-15T02:30:24.640Z,102760.09
2023-02-15T02:33:25.907Z,102753.97
2023-02-15T02:36:01.897Z,102748.78
2023-02-15T02:38:47.502Z,102747.94
2023-02-15T02:41:26.817Z,102744.59
2023-02-15T02:44:09.756Z,102747.94
2023-02-15T02:46:42.205Z,102752.25
2023-02-15T02:49:08.788Z,102742.53
2023-02-15T02:51:35.351Z,102743.38
2023-02-15T02:54:06.590Z,102745.06
2023-02-15T02:56:44.396Z,102737.09
2023-02-15T02:59:17.120Z,102733.47
2023-02-15T03:01:47.818Z,102721.91
2023-02-15T03:04:16.977Z,102728.19
2023-02-15T03:06:48.674Z,102729.03
2023-02-15T03:09:35.525Z,102728.19
2023-02-15T03:12:04.674Z,102724.00
2023-02-15T03:14:31.406Z,102721.22
2023-02-15T03:16:58.445Z,102722.19
2023-02-15T03:19:29.101Z,102717.84
2023-02-15T03:22:20.230Z,102716.16
2023-02-15T03:24:56.324Z,102717.03
2023-02-15T03:27:27.873Z,102713.53
2023-02-15T03:29:59.362Z,102710.88
2023-02-15T03:32:28.189Z,102707.38
2023-02-15T03:34:55.782Z,102710.03
2023-02-15T03:37:39.137Z,102704.88
2023-02-15T03:40:38.051Z,102706.69
2023-02-15T03:43:23.013Z,102708.47
2023-02-15T03:45:55.946Z,102702.34
2023-02-15T03:48:35.882Z,102697.19
2023-02-15T03:51:25.067Z,102705.97
2023-02-15T03:53:52.279Z,102698.16
2023-02-15T03:56:18.840Z,102691.03
2023-02-15T03:59:03.644Z,102699.81
2023-02-15T04:01:59.334Z,102690.22
2023-02-15T04:04:33.783Z,102680.44
2023-02-15T04:07:00.877Z,102679.50
2023-02-15T04:09:46.218Z,102682.16
2023-02-15T04:12:12.789Z,102689.94
2023-02-15T04:14:57.823Z,102682.72
2023-02-15T04:17:24.427Z,102680.06
2023-02-15T04:20:09.515Z,102673.94
2023-02-15T04:22:54.758Z,102671.03
2023-02-15T04:25:21.312Z,102678.00
2023-02-15T04:27:52.706Z,102672.81
2023-02-15T04:30:21.525Z,102660.56
2023-02-15T04:32:48.510Z,102671.03
2023-02-15T04:35:15.834Z,102672.00
2023-02-15T04:37:43.474Z,102658.91
2023-02-15T04:40:13.419Z,102656.25
2023-02-15T04:42:40.014Z,102654.56
2023-02-15T04:45:07.219Z,102656.38
2023-02-15T04:47:34.043Z,102659.88
2023-02-15T04:50:00.618Z,102655.50
2023-02-15T04:52:27.179Z,102650.38
2023-02-15T04:54:53.713Z,102641.59
2023-02-15T04:57:20.260Z,102641.59
2023-02-15T04:59:46.852Z,102646.88
2023-02-15T05:02:13.446Z,102636.28
2023-02-15T05:04:40.012Z,102636.41
2023-02-15T05:07:06.597Z,102636.41
2023-02-15T05:09:33.127Z,102634.88
2023-02-15T05:11:59.665Z,102637.38
2023-02-15T05:14:26.295Z,102643.66
2023-02-15T05:16:54.804Z,102646.16
2023-02-15T05:19:21.603Z,102648.09
2023-02-15T05:21:48.148Z,102644.59
2023-02-15T05:24:33.338Z,102649.06
2023-02-15T05:27:18.285Z,102638.59
2023-02-15T05:29:44.845Z,102642.09
2023-02-15T05:32:14.224Z,102641.94
2023-02-15T05:34:40.790Z,102637.50
2023-02-15T05:37:08.529Z,102626.06
2023-02-15T05:39:35.128Z,102628.59
2023-02-15T05:42:01.888Z,102627.78
2023-02-15T05:44:28.451Z,102626.78
2023-02-15T05:46:54.999Z,102633.75
2023-02-15T05:49:21.602Z,102627.50
2023-02-15T05:51:48.186Z,102630.13
2023-02-15T05:54:14.745Z,102629.19
2023-02-15T05:56:41.299Z,102633.63
2023-02-15T05:59:07.878Z,102624.03
2023-02-15T06:01:34.405Z,102621.38
2023-02-15T06:04:01.120Z,102624.97
2023-02-15T06:06:27.708Z,102624.03
2023-02-15T06:08:54.275Z,102623.16
2023-02-15T06:11:20.796Z,102623.16
2023-02-15T06:13:47.374Z,102616.19
2023-02-15T06:16:14.017Z,102625.69
2023-02-15T06:18:40.625Z,102615.22
2023-02-15T06:21:07.169Z,102615.22
2023-02-15T06:23:33.997Z,102618.00
2023-02-15T06:26:00.862Z,102619.66
2023-02-15T06:28:27.722Z,102610.06
2023-02-15T06:30:54.462Z,102611.72
2023-02-15T06:33:21.110Z,102603.09
2023-02-15T06:35:47.649Z,102609.38
2023-02-15T06:38:14.222Z,102613.81
2023-02-15T06:40:40.884Z,102607.69
2023-02-15T06:43:07.491Z,102602.41
2023-02-15T06:45:34.109Z,102612.13
2023-02-15T06:48:00.684Z,102618.28
2023-02-15T06:50:27.221Z,102611.28
2023-02-15T06:52:58.518Z,102614.91
2023-02-15T06:55:25.586Z,102606.97
2023-02-15T06:57:52.126Z,102609.59
2023-02-15T07:00:19.334Z,102612.13
2023-02-15T07:02:46.128Z,102613.81
2023-02-15T07:05:12.760Z,102607.69
2023-02-15T07:07:39.447Z,102608.50
2023-02-15T07:10:07.235Z,102605.75
2023-02-15T07:12:42.407Z,102600.44
2023-02-15T07:15:14.742Z,102597.66
2023-02-15T07:17:41.789Z,102595.03
2023-02-15T07:20:15.251Z,102590.56
2023-02-15T07:22:41.835Z,102587.91
2023-02-15T07:25:10.079Z,102584.44
2023-02-15T07:27:36.651Z,102579.28
2023-02-15T07:30:04.441Z,102583.59
2023-02-15T07:32:32.597Z,102578.41
2023-02-15T07:34:59.964Z,102577.59
2023-02-15T07:37:27.269Z,102578.56
2023-02-15T07:39:53.929Z,102571.56
2023-02-15T07:42:22.045Z,102569.91
2023-02-15T07:44:48.802Z,102573.28
2023-02-15T07:47:15.378Z,102562.81
2023-02-15T07:49:41.923Z,102558.34
2023-02-15T07:52:08.505Z,102564.47
2023-02-15T07:54:35.057Z,102564.72
2023-02-15T07:57:02.223Z,102555.97
2023-02-15T07:59:28.838Z,102562.09
2023-02-15T08:01:57.361Z,102562.09
2023-02-15T08:04:24.633Z,102558.63
2023-02-15T08:06:54.091Z,102553.31
2023-02-15T08:09:20.760Z,102556.78
2023-02-15T08:11:48.216Z,102555.00
2023-02-15T08:14:17.048Z,102548.72
2023-02-15T08:16:44.603Z,102555.69
2023-02-15T08:19:15.226Z,102551.25
2023-02-15T08:21:44.056Z,102549.44
2023-02-15T08:24:11.844Z,102544.97
2023-02-15T08:26:41.887Z,102542.19
2023-02-15T08:29:09.488Z,102543.88
2023-02-15T08:31:36.637Z,102535.81
2023-02-15T08:34:03.484Z,102543.50
2023-02-15T08:36:32.535Z,102534.69
2023-02-15T08:39:00.345Z,102533.72
2023-02-15T08:41:31.878Z,102524.84
2023-02-15T08:44:03.241Z,102517.03
2023-02-15T08:46:32.222Z,102525.78
2023-02-15T08:48:59.079Z,102524.84
2023-02-15T08:51:28.494Z,102520.50
2023-02-15T08:53:56.952Z,102516.28
2023-02-15T08:56:29.257Z,102508.34
2023-02-15T08:58:56.816Z,102505.72
2023-02-15T09:01:26.821Z,102513.53
2023-02-15T09:03:58.496Z,102511.84
2023-02-15T09:06:25.172Z,102515.47
2023-02-15T09:08:52.145Z,102510.75
2023-02-15T09:11:24.839Z,102514.50
2023-02-15T09:14:00.168Z,102518.81
2023-02-15T09:16:29.192Z,102517.16
2023-02-15T09:18:58.440Z,102507.53
2023-02-15T09:21:26.612Z,102499.59
2023-02-15T09:23:57.394Z,102507.53
2023-02-15T09:26:24.936Z,102499.59
2023-02-15T09:28:56.945Z,102497.06
2023-02-15T09:31:26.143Z,102501.38
2023-02-15T09:33:53.227Z,102496.09
2023-02-15T09:36:26.734Z,102500.53
2023-02-15T09:38:58.675Z,102501.50
2023-02-15T09:42:02.532Z,102504.03
2023-02-15T09:45:01.513Z,102490.94
2023-02-15T09:47:45.950Z,102492.59
2023-02-15T09:50:31.300Z,102489.13
2023-02-15T09:53:03.674Z,102485.50
2023-02-15T09:55:36.637Z,102482.84
2023-02-15T09:58:09.181Z,102488.72
2023-02-15T10:00:55.259Z,102469.25
2023-02-15T10:03:46.447Z,102465.63
2023-02-15T10:06:29.326Z,102468.13
2023-02-15T10:09:20.598Z,102476.91
2023-02-15T10:12:10.879Z,102469.81
2023-02-15T10:14:49.988Z,102475.94
2023-02-15T10:17:41.643Z,102471.59
2023-02-15T10:20:50.342Z,102470.66
2023-02-15T10:23:38.853Z,102461.00
2023-02-15T10:26:44.177Z,102459.22
2023-02-15T10:29:27.838Z,102456.44
2023-02-15T10:32:27.810Z,102458.09
2023-02-15T10:35:06.477Z,102458.09
2023-02-15T10:37:46.824Z,102454.47
2023-02-15T10:40:31.476Z,102447.94
2023-02-15T10:43:07.726Z,102446.59
2023-02-15T10:45:42.892Z,102435.56
2023-02-15T10:48:34.160Z,102438.09
2023-02-15T10:51:03.689Z,102429.31
2023-02-15T10:53:43.920Z,102427.34
2023-02-15T10:56:21.233Z,102423.03
2023-02-15T10:58:48.588Z,102418.31
2023-02-15T11:01:20.982Z,102415.53
2023-02-15T11:04:29.093Z,102413.44
2023-02-15T11:07:00.378Z,102418.34
2023-02-15T11:09:34.829Z,102401.88
2023-02-15T11:12:01.664Z,102405.81
2023-02-15T11:14:44.313Z,102394.81
2023-02-15T11:17:19.606Z,102393.56
2023-02-15T11:20:08.095Z,102392.28
2023-02-15T11:22:34.964Z,102393.69
2023-02-15T11:25:02.891Z,102380.16
2023-02-15T11:27:34.093Z,102383.22
2023-02-15T11:30:12.792Z,102377.91
2023-02-15T11:32:41.426Z,102375.97
2023-02-15T11:35:10.949Z,102373.47
2023-02-15T11:37:52.852Z,102372.91
2023-02-15T11:40:29.070Z,102364.53
2023-02-15T11:43:03.130Z,102367.59
2023-02-15T11:45:35.544Z,102359.50
2023-02-15T11:48:06.278Z,102358.09
2023-02-15T11:50:33.657Z,102354.63
2023-02-15T11:53:11.618Z,102354.22
2023-02-15T11:55:38.294Z,102341.22
2023-02-15T11:58:16.740Z,102343.03
2023-02-15T12:00:48.034Z,102342.22
2023-02-15T12:03:21.935Z,102335.38
2023-02-15T12:06:03.109Z,102333.84
2023-02-15T12:08:39.156Z,102332.88
2023-02-15T12:11:47.200Z,102335.66
2023-02-15T12:14:17.072Z,102336.63
2023-02-15T12:16:47.087Z,102332.28
2023-02-15T12:19:40.926Z,102336.63
2023-02-15T12:22:28.774Z,102330.47
2023-02-15T12:24:57.817Z,102328.69
2023-02-15T12:27:35.448Z,102322.53
2023-02-15T12:30:08.638Z,102327.16
2023-02-15T12:32:57.292Z,102329.63
2023-02-15T12:35:32.371Z,102329.78
2023-02-15T12:38:22.478Z,102320.88
2023-02-15T12:41:02.250Z,102315.69
2023-02-15T12:43:39.118Z,102315.69
2023-02-15T12:46:26.809Z,102313.06
2023-02-15T12:49:09.079Z,102319.03
2023-02-15T12:51:50.740Z,102313.75
2023-02-15T12:54:27.625Z,102309.16
2023-02-15T12:56:54.156Z,102300.50
2023-02-15T12:59:23.606Z,102295.06
2023-02-15T13:01:52.164Z,102297.72
2023-02-15T13:04:29.466Z,102301.09
2023-02-15T13:06:59.296Z,102293.28
2023-02-15T13:09:35.351Z,102294.94
2023-02-15T13:12:19.794Z,102293.94
2023-02-15T13:14:48.756Z,102285.88
2023-02-15T13:17:18.311Z,102283.81
2023-02-15T13:19:48.216Z,102276.53
2023-02-15T13:22:18.737Z,102269.16
2023-02-15T13:24:49.250Z,102268.03
2023-02-15T13:27:19.559Z,102264.97
2023-02-15T13:29:49.433Z,102262.19
2023-02-15T13:32:34.770Z,102252.25
2023-02-15T13:35:03.530Z,102246.84
2023-02-15T13:38:12.222Z,102242.38
2023-02-15T13:40:46.641Z,102233.44
2023-02-15T13:43:33.251Z,102228.16
2023-02-15T13:46:16.558Z,102225.38
2023-02-15T13:49:12.852Z,102236.78
2023-02-15T13:52:01.763Z,102230.34
2023-02-15T13:54:47.540Z,102223.66
2023-02-15T13:57:17.001Z,102232.00
2023-02-15T14:00:17.492Z,102233.41
2023-02-15T14:02:59.736Z,102225.19
2023-02-15T14:05:29.279Z,102226.56
2023-02-15T14:08:23.893Z,102217.38
2023-02-15T14:11:13.661Z,102217.09
2023-02-15T14:13:52.293Z,102222.81
2023-02-15T14:16:36.102Z,102219.69
2023-02-15T14:19:32.188Z,102223.47
2023-02-15T14:22:03.557Z,102218.41
2023-02-15T14:24:39.562Z,102220.47
2023-02-15T14:28:03.251Z,102216.41
2023-02-15T14:30:53.628Z,102212.75
2023-02-15T14:33:43.734Z,102206.94
2023-02-15T14:36:14.843Z,102201.91
2023-02-15T14:38:53.299Z,102204.69
2023-02-15T14:41:49.547Z,102206.22
2023-02-15T14:44:22.526Z,102197.00
2023-02-15T14:47:12.214Z,102197.38
2023-02-15T14:49:40.216Z,102191.41
2023-02-15T14:52:12.417Z,102192.13
2023-02-15T14:54:38.927Z,102190.31
2023-02-15T14:57:08.393Z,102200.09
2023-02-15T14:59:53.421Z,102191.41
2023-02-15T15:02:24.132Z,102201.28
2023-02-15T15:04:59.767Z,102201.13
2023-02-15T15:07:44.634Z,102194.28
2023-02-15T15:10:16.974Z,102190.66
2023-02-15T15:12:48.142Z,102190.81
2023-02-15T15:15:36.046Z,102186.97
2023-02-15T15:18:07.734Z,102186.19
2023-02-15T15:20:52.082Z,102187.47
2023-02-15T15:23:21.973Z,102194.59
2023-02-15T15:26:03.224Z,102185.69
2023-02-15T15:28:36.095Z,102186.28
2023-02-15T15:31:24.234Z,102194.63
2023-02-15T15:34:06.106Z,102186.69
2023-02-15T15:36:54.188Z,102184.31
2023-02-15T15:39:29.749Z,102178.06
2023-02-15T15:42:16.678Z,102189.34
2023-02-15T15:45:04.973Z,102175.81
2023-02-15T15:48:07.453Z,102180.97
2023-02-15T15:50:34.969Z,102175.94
2023-02-15T15:53:02.518Z,102178.75
2023-02-15T15:55:31.936Z,102184.31
2023-02-15T15:58:02.237Z,102189.94
2023-02-15T16:01:04.595Z,102184.75
2023-02-15T16:03:31.397Z,102184.91
2023-02-15T16:06:01.351Z,102178.75
2023-02-15T16:08:34.761Z,102178.06
2023-02-15T16:11:09.402Z,102175.69
2023-02-15T16:13:36.036Z,102176.56
2023-02-15T16:16:02.986Z,102173.19
2023-02-15T16:18:29.755Z,102172.50
2023-02-15T16:20:58.672Z,102170.84
2023-02-15T16:23:37.305Z,102162.31
2023-02-15T16:26:13.938Z,102173.09
2023-02-15T16:28:40.810Z,102166.25
2023-02-15T16:31:16.055Z,102169.06
2023-02-15T16:33:43.969Z,102171.72
2023-02-15T16:36:25.108Z,102177.16
2023-02-15T16:38:51.597Z,102169.47
2023-02-15T16:41:30.731Z,102173.91
2023-02-15T16:44:02.161Z,102175.75
2023-02-15T16:46:30.722Z,102166.13
2023-02-15T16:49:00.925Z,102168.94
2023-02-15T16:51:30.727Z,102171.72
2023-02-15T16:53:59.328Z,102174.50
2023-02-15T16:56:28.489Z,102169.19
2023-02-15T16:58:56.456Z,102160.72
2023-02-15T17:01:25.954Z,102154.44
2023-02-15T17:04:12.396Z,102156.22
2023-02-15T17:06:39.133Z,102160.56
2023-02-15T17:09:10.995Z,102153.44
2023-02-15T17:11:43.587Z,102157.94
2023-02-15T17:14:10.554Z,102155.97
2023-02-15T17:16:43.013Z,102161.25
2023-02-15T17:19:15.189Z,102164.63
2023-02-15T17:22:04.595Z,102156.66
2023-02-15T17:24:42.395Z,102157.63
2023-02-15T17:27:14.203Z,102158.34
2023-02-15T17:29:46.989Z,102160.97
2023-02-15T17:32:19.677Z,102161.78
2023-02-15T17:35:09.468Z,102159.31
2023-02-15T17:37:38.728Z,102161.25
2023-02-15T17:40:35.752Z,102164.63
2023-02-15T17:43:02.732Z,102163.78
2023-02-15T17:45:37.519Z,102162.91
2023-02-15T17:48:05.703Z,102159.59
2023-02-15T17:50:32.941Z,102158.88
2023-02-15T17:53:01.421Z,102163.22
2023-02-15T17:55:41.214Z,102164.19
2023-02-15T17:58:19.452Z,102156.22
2023-02-15T18:01:10.086Z,102159.72
2023-02-15T18:04:02.792Z,102158.06
2023-02-15T18:06:47.920Z,102149.28
2023-02-15T18:09:34.804Z,102151.91
2023-02-15T18:12:02.077Z,102144.97
2023-02-15T18:14:28.764Z,102138.00
2023-02-15T18:16:55.841Z,102138.00
2023-02-15T18:19:25.624Z,102131.84
2023-02-15T18:21:52.925Z,102138.94
2023-02-15T18:24:24.757Z,102135.50
2023-02-15T18:26:52.552Z,102128.66
2023-02-15T18:29:19.273Z,102134.78
2023-02-15T18:31:48.493Z,102138.41
2023-02-15T18:34:31.030Z,102137.59
2023-02-15T18:36:58.481Z,102132.28
2023-02-15T18:39:27.109Z,102129.66
2023-02-15T18:41:54.075Z,102137.44
2023-02-15T18:44:20.679Z,102131.31
2023-02-15T18:46:47.261Z,102131.19
2023-02-15T18:49:13.807Z,102131.19
2023-02-15T18:51:40.979Z,102134.63
2023-02-15T18:54:17.097Z,102137.28
2023-02-15T18:56:43.667Z,102131.00
2023-02-15T18:59:19.415Z,102138.00
2023-02-15T19:01:46.044Z,102128.34
2023-02-15T19:04:12.699Z,102125.88
2023-02-15T19:06:44.588Z,102122.38
2023-02-15T19:09:22.167Z,102119.72
2023-02-15T19:11:51.745Z,102115.28
2023-02-15T19:14:30.729Z,102115.44
2023-02-15T19:16:59.241Z,102118.06
2023-02-15T19:19:26.659Z,102116.41
2023-02-15T19:21:53.765Z,102109.28
2023-02-15T19:24:25.222Z,102108.59
2023-02-15T19:26:52.434Z,102109.41
2023-02-15T19:29:26.225Z,102102.47
2023-02-15T19:31:52.953Z,102100.78
2023-02-15T19:34:19.581Z,102098.16
2023-02-15T19:36:48.853Z,102100.94
2023-02-15T19:39:35.735Z,102107.06
2023-02-15T19:42:02.316Z,102100.94
2023-02-15T19:44:28.858Z,102093.97
2023-02-15T19:46:55.726Z,102097.44
2023-02-15T19:49:22.328Z,102097.44
2023-02-15T19:51:49.024Z,102102.72
2023-02-15T19:54:35.183Z,102088.69
2023-02-15T19:57:01.828Z,102089.50
2023-02-15T19:59:30.401Z,102082.53
2023-02-15T20:01:57.432Z,102087.56
2023-02-15T20:04:24.612Z,102078.78
2023-02-15T20:06:52.350Z,102075.13
2023-02-15T20:09:33.910Z,102075.97
2023-02-15T20:12:00.999Z,102072.34
2023-02-15T20:14:27.741Z,102063.59
2023-02-15T20:16:54.324Z,102061.75
2023-02-15T20:19:20.954Z,102057.31
2023-02-15T20:21:54.630Z,102061.75
2023-02-15T20:24:22.640Z,102056.47
2023-02-15T20:26:49.502Z,102056.47
2023-02-15T20:29:18.501Z,102049.50
2023-02-15T20:31:45.590Z,102058.28
2023-02-15T20:34:12.281Z,102051.31
2023-02-15T20:36:39.517Z,102048.81
2023-02-15T20:39:16.758Z,102045.19
2023-02-15T20:41:47.734Z,102044.34
2023-02-15T20:44:29.202Z,102035.59
2023-02-15T20:46:57.760Z,102026.94
2023-02-15T20:49:25.610Z,102029.59
2023-02-15T20:51:53.562Z,102028.59
2023-02-15T20:54:25.566Z,102028.59
2023-02-15T20:56:52.360Z,102042.81
2023-02-15T20:59:25.116Z,102031.56
2023-02-15T21:01:55.921Z,102038.66
2023-02-15T21:04:25.822Z,102035.16
2023-02-15T21:06:52.358Z,102037.00
2023-02-15T21:09:18.919Z,102043.09
2023-02-15T21:11:45.649Z,102032.81
2023-02-15T21:14:19.617Z,102033.94
2023-02-15T21:16:47.197Z,102027.53
2023-02-15T21:19:19.381Z,102035.75
2023-02-15T21:21:46.557Z,102035.75
2023-02-15T21:24:20.655Z,102035.06
2023-02-15T21:26:47.746Z,102037.72
2023-02-15T21:29:22.430Z,102028.06
2023-02-15T21:31:49.121Z,102034.22
2023-02-15T21:34:17.908Z,102036.03
2023-02-15T21:36:46.035Z,102039.66
2023-02-15T21:39:22.175Z,102043.97
2023-02-15T21:42:09.214Z,102048.44
2023-02-15T21:44:54.624Z,102048.56
2023-02-15T21:47:40.534Z,102042.44
2023-02-15T21:50:28.291Z,102051.22
2023-02-15T21:52:55.170Z,102046.06
2023-02-15T21:55:21.807Z,102054.84
2023-02-15T21:57:48.388Z,102047.88
2023-02-15T22:00:19.564Z,102047.06
2023-02-15T22:02:47.596Z,102040.91
2023-02-15T22:05:21.169Z,102036.59
2023-02-15T22:07:47.833Z,102039.25
2023-02-15T22:10:14.433Z,102027.97
2023-02-15T22:12:42.398Z,102030.63
2023-02-15T22:15:21.866Z,102029.91
2023-02-15T22:17:51.003Z,102029.06
2023-02-15T22:20:20.497Z,102037.19
2023-02-15T22:22:48.250Z,102035.50
2023-02-15T22:25:17.294Z,102032.16
2023-02-15T22:27:44.626Z,102040.94
2023-02-15T22:30:25.505Z,102039.25
2023-02-15T22:32:52.901Z,102034.94
2023-02-15T22:35:23.080Z,102034.28
2023-02-15T22:37:49.658Z,102028.97
2023-02-15T22:40:17.373Z,102029.94
2023-02-15T22:42:49.259Z,102030.09
2023-02-15T22:45:18.589Z,102034.69
2023-02-15T22:47:48.151Z,102041.63
2023-02-15T22:50:20.582Z,102043.59
2023-02-15T22:52:47.604Z,102048.91
2023-02-15T22:55:18.809Z,102047.38
2023-02-15T22:57:46.866Z,102044.84
2023-02-15T23:00:18.338Z,102039.56
2023-02-15T23:02:45.177Z,102036.22
2023-02-15T23:05:26.030Z,102036.22
2023-02-15T23:07:52.672Z,102032.88
2023-02-15T23:10:23.642Z,102037.31
2023-02-15T23:13:13.843Z,102034.81
2023-02-15T23:15:41.788Z,102037.47
2023-02-15T23:18:33.122Z,102035.91
2023-02-15T23:21:03.193Z,102043.84
2023-02-15T23:23:42.417Z,102037.03
2023-02-15T23:26:29.945Z,102039.66
2023-02-15T23:28:59.375Z,102031.06
2023-02-15T23:31:33.861Z,102033.69
2023-02-15T23:34:02.511Z,102028.53
2023-02-15T23:36:39.435Z,102033.84
2023-02-15T23:39:41.963Z,102030.66
2023-02-15T23:42:21.536Z,102020.88
2023-02-15T23:44:48.688Z,102032.31
2023-02-15T23:47:21.060Z,102028.13
2023-02-15T23:49:48.074Z,102024.63
2023-02-15T23:52:14.612Z,102024.63
2023-02-15T23:54:41.173Z,102018.66
2023-02-15T23:57:10.928Z,102023.13
2023-02-15T23:59:41.312Z,102021.31
